Terminal Aerodrome Forecast
Issued by NWS Greer, SC

Current Version | Previous Version | Text Only | Print | Product List | Glossary On
Versions: 1 2 3 4 5 6 7 8 9 10 11 12 13 14 15 16
000
FTUS42 KGSP 211800 AAA
TAFGSP
TAF AMD
KGSP 211845Z 2119/2218 26005KT P6SM FEW050 FEW250
     FM212100 30010G20KT P6SM SCT050
     FM220000 35007KT P6SM FEW050
     FM220600 35005KT P6SM SKC=

USA.gov is the U.S. government's official web portal to all federal, state and local government web resources and services.